Time;durP1;ratioP1;P1;durP2;ratioP2;P2;SDS_P1;SDS_P2;PMS_P1;PMS_P2;Temp;Humidity;BMP_temperature;BMP_pressure;BME280_temperature;BME280_humidity;BME280_pressure;Samples;Min_cycle;Max_cycle;Signal;HPM_P1;HPM_P2
2022/12/09 00:01:49;;;;;;;72.65;40.17;;;5.90;99.90;;;;;;4753580;30;20040;-71
2022/12/09 00:04:16;;;;;;;80.82;39.00;;;6.00;99.90;;;;;;4753470;30;20454;-72
2022/12/09 00:06:41;;;;;;;75.28;38.40;;;6.00;99.90;;;;;;4753624;30;20537;-73
2022/12/09 00:09:13;;;;;;;74.82;41.97;;;6.00;99.90;;;;;;4753551;30;20028;-72
2022/12/09 00:11:39;;;;;;;99.03;42.92;;;6.00;99.90;;;;;;4753480;30;20123;-71
2022/12/09 00:14:04;;;;;;;68.55;35.10;;;5.90;99.90;;;;;;4753238;30;20111;-72
2022/12/09 00:16:30;;;;;;;105.22;43.67;;;6.00;99.90;;;;;;4753147;30;20139;-72
2022/12/09 00:18:57;;;;;;;68.30;40.50;;;5.90;99.90;;;;;;4753165;30;20135;-73
2022/12/09 00:21:26;;;;;;;86.85;42.38;;;5.90;99.90;;;;;;4753244;30;20127;-72
2022/12/09 00:23:53;;;;;;;167.70;57.70;;;5.90;99.90;;;;;;4753192;30;20395;-72
2022/12/09 00:26:20;;;;;;;154.20;55.72;;;5.80;99.90;;;;;;4753176;30;20410;-73
2022/12/09 00:28:48;;;;;;;81.25;37.67;;;5.80;99.90;;;;;;4753153;30;20502;-71
2022/12/09 00:31:18;;;;;;;261.95;66.25;;;5.90;99.90;;;;;;4753327;30;20039;-73
2022/12/09 00:33:44;;;;;;;112.00;41.22;;;5.80;99.90;;;;;;4751134;30;20091;-73
2022/12/09 00:36:13;;;;;;;67.20;35.00;;;5.90;99.90;;;;;;4753090;30;20040;-71
2022/12/09 00:38:40;;;;;;;64.93;36.15;;;5.90;99.90;;;;;;4753033;30;20071;-71
2022/12/09 00:41:08;;;;;;;62.45;33.60;;;6.00;99.90;;;;;;4737007;30;20036;-71
2022/12/09 00:43:34;;;;;;;75.85;36.20;;;6.10;99.90;;;;;;4753027;30;20039;-72
2022/12/09 00:46:00;;;;;;;86.90;39.15;;;6.10;99.90;;;;;;4752626;30;20039;-71
2022/12/09 00:48:27;;;;;;;94.50;38.72;;;6.00;99.90;;;;;;4751162;30;20054;-74
2022/12/09 00:50:54;;;;;;;110.50;40.55;;;6.00;99.90;;;;;;4752728;30;20032;-74
2022/12/09 00:53:20;;;;;;;113.80;43.33;;;6.00;99.90;;;;;;4752609;30;20040;-71
2022/12/09 00:55:46;;;;;;;61.78;33.03;;;6.00;99.90;;;;;;4752628;30;20068;-71
2022/12/09 00:58:12;;;;;;;79.40;38.60;;;6.10;99.90;;;;;;4752664;30;20039;-71
2022/12/09 01:00:39;;;;;;;89.05;40.97;;;6.10;99.90;;;;;;4752785;30;20028;-75
2022/12/09 01:03:05;;;;;;;60.50;34.83;;;6.20;99.90;;;;;;4752810;30;20436;-71
2022/12/09 01:05:34;;;;;;;196.15;47.42;;;6.20;99.90;;;;;;4751391;30;20036;-71
2022/12/09 01:08:00;;;;;;;180.75;56.03;;;6.00;99.90;;;;;;4752622;30;20031;-70
2022/12/09 01:10:26;;;;;;;79.75;38.03;;;5.90;99.90;;;;;;4752328;30;20402;-71
2022/12/09 01:12:52;;;;;;;133.02;44.65;;;6.00;99.90;;;;;;4752169;30;20030;-72
2022/12/09 01:15:18;;;;;;;117.53;37.70;;;6.00;99.90;;;;;;4752507;30;20040;-72
2022/12/09 01:17:43;;;;;;;76.53;37.10;;;5.90;99.90;;;;;;4752281;30;20052;-71
2022/12/09 01:20:10;;;;;;;81.80;33.63;;;6.00;99.90;;;;;;4751272;30;20066;-71
2022/12/09 01:22:36;;;;;;;272.38;56.38;;;6.00;99.90;;;;;;4752552;30;20031;-72
2022/12/09 01:25:02;;;;;;;297.60;57.03;;;5.80;99.90;;;;;;4752548;30;20040;-72
2022/12/09 01:27:29;;;;;;;128.13;38.70;;;5.70;99.90;;;;;;4752250;30;20395;-71
2022/12/09 01:29:55;;;;;;;103.55;37.50;;;5.80;99.90;;;;;;4736531;30;20047;-72
2022/12/09 01:32:21;;;;;;;102.30;35.28;;;5.80;99.90;;;;;;4752267;30;20028;-71
2022/12/09 01:34:47;;;;;;;58.30;29.20;;;5.90;99.90;;;;;;4752284;30;20499;-72
2022/12/09 01:37:13;;;;;;;86.40;32.80;;;6.00;99.90;;;;;;4736501;30;20024;-72
2022/12/09 01:39:40;;;;;;;95.10;36.25;;;6.00;99.90;;;;;;4752452;30;20048;-72
2022/12/09 01:42:09;;;;;;;65.55;31.17;;;6.00;99.90;;;;;;4752428;30;20020;-72
2022/12/09 01:44:35;;;;;;;166.23;45.20;;;6.10;99.90;;;;;;4752300;30;20064;-71
2022/12/09 01:47:01;;;;;;;125.88;41.72;;;5.90;99.90;;;;;;4756319;30;20071;-72
2022/12/09 01:49:45;;;;;;;61.45;32.15;;;5.90;99.90;;;;;;4754676;30;20131;-72
2022/12/09 01:52:17;;;;;;;76.50;28.55;;;6.00;99.90;;;;;;4754611;30;20036;-71
2022/12/09 01:54:47;;;;;;;60.55;28.98;;;6.00;99.90;;;;;;4754198;30;20048;-71
2022/12/09 01:57:14;;;;;;;52.72;27.15;;;6.00;99.90;;;;;;4755526;30;20032;-71
2022/12/09 01:59:41;;;;;;;67.10;30.83;;;6.00;99.90;;;;;;4739043;30;20048;-71
2022/12/09 02:02:10;;;;;;;60.17;31.42;;;6.00;99.90;;;;;;4755463;30;20031;-72
2022/12/09 02:04:39;;;;;;;64.72;28.83;;;5.90;99.90;;;;;;4754554;30;20376;-72
2022/12/09 02:07:09;;;;;;;52.92;25.80;;;6.00;99.90;;;;;;4739385;30;20029;-71
2022/12/09 02:09:40;;;;;;;55.55;25.92;;;6.00;99.90;;;;;;4755412;30;20102;-72
2022/12/09 02:12:15;;;;;;;59.88;25.85;;;6.00;99.90;;;;;;4754212;30;20097;-72
2022/12/09 02:15:02;;;;;;;112.20;34.58;;;5.90;99.90;;;;;;4755218;30;20051;-72
2022/12/09 02:17:58;;;;;;;45.67;25.90;;;5.80;99.90;;;;;;4754098;30;20392;-72
2022/12/09 02:20:44;;;;;;;46.95;23.95;;;5.80;99.90;;;;;;4754165;30;20040;-73
2022/12/09 02:23:29;;;;;;;43.38;23.08;;;5.80;99.90;;;;;;4754183;30;20032;-71
2022/12/09 02:26:07;;;;;;;73.78;28.60;;;5.70;99.90;;;;;;4755320;30;20029;-73
2022/12/09 02:28:50;;;;;;;73.07;27.08;;;5.80;99.90;;;;;;4754025;30;20043;-70
2022/12/09 02:31:35;;;;;;;61.90;22.55;;;5.70;99.90;;;;;;4754008;30;20411;-73
2022/12/09 02:34:19;;;;;;;49.33;21.48;;;5.70;99.90;;;;;;4753786;30;20594;-72
2022/12/09 02:37:10;;;;;;;87.03;27.02;;;5.70;99.90;;;;;;4754007;30;20044;-72
2022/12/09 02:39:42;;;;;;;69.65;22.90;;;5.50;99.90;;;;;;4753968;30;20040;-71
2022/12/09 02:42:10;;;;;;;47.72;23.20;;;5.50;99.90;;;;;;4755064;30;20107;-72
2022/12/09 02:44:38;;;;;;;68.13;27.50;;;5.60;99.90;;;;;;4754718;30;20029;-71
2022/12/09 02:47:09;;;;;;;60.35;24.50;;;5.60;99.90;;;;;;4753086;30;20036;-71
2022/12/09 02:49:36;;;;;;;79.05;25.10;;;5.60;99.90;;;;;;4753161;30;20043;-72
2022/12/09 02:52:04;;;;;;;45.05;22.60;;;5.70;99.90;;;;;;4752821;30;20066;-72
2022/12/09 02:54:32;;;;;;;38.83;23.52;;;5.70;99.90;;;;;;4753070;30;20044;-72
2022/12/09 02:57:07;;;;;;;85.60;29.15;;;5.70;99.90;;;;;;4737293;30;20044;-73
2022/12/09 02:59:35;;;;;;;71.22;26.25;;;5.50;99.90;;;;;;4752791;30;20074;-71
2022/12/09 03:02:18;;;;;;;58.78;26.05;;;5.60;99.90;;;;;;4753888;30;20071;-73
2022/12/09 03:05:09;;;;;;;40.25;23.52;;;5.70;99.90;;;;;;4753910;30;20036;-72
2022/12/09 03:07:44;;;;;;;45.83;24.08;;;5.70;99.90;;;;;;4753870;30;20040;-73
2022/12/09 03:10:32;;;;;;;38.45;21.88;;;5.70;99.90;;;;;;4753991;30;20039;-71
2022/12/09 03:13:20;;;;;;;36.78;21.20;;;5.70;99.90;;;;;;4754333;30;20438;-72
2022/12/09 03:15:52;;;;;;;46.33;27.67;;;5.70;99.90;;;;;;4753765;30;20590;-72
2022/12/09 03:18:20;;;;;;;46.92;26.95;;;5.70;99.90;;;;;;4754078;30;20036;-72
2022/12/09 03:20:49;;;;;;;42.33;25.40;;;5.60;99.90;;;;;;4753859;30;20024;-72
2022/12/09 03:23:18;;;;;;;43.70;22.50;;;5.60;99.90;;;;;;4753898;30;20409;-72
2022/12/09 03:25:51;;;;;;;44.47;26.45;;;5.50;99.90;;;;;;4753738;30;20028;-71
2022/12/09 03:28:32;;;;;;;42.08;27.25;;;5.40;99.90;;;;;;4753856;30;20032;-72
2022/12/09 03:31:03;;;;;;;50.88;25.30;;;5.50;99.90;;;;;;4753676;30;20483;-73
2022/12/09 03:33:30;;;;;;;62.38;30.00;;;5.50;99.90;;;;;;4753679;30;20119;-73
2022/12/09 03:36:01;;;;;;;52.70;27.23;;;5.40;99.90;;;;;;4753604;30;20036;-73
2022/12/09 03:38:35;;;;;;;55.75;25.25;;;5.40;99.90;;;;;;4753731;30;20097;-72
2022/12/09 03:41:24;;;;;;;37.35;22.98;;;5.40;99.90;;;;;;4753611;30;20060;-72
2022/12/09 03:43:58;;;;;;;46.88;26.48;;;5.50;99.90;;;;;;4753521;30;20094;-72
2022/12/09 03:46:26;;;;;;;50.72;27.63;;;5.60;99.90;;;;;;4753349;30;20578;-73
2022/12/09 03:48:52;;;;;;;52.17;28.67;;;5.60;99.90;;;;;;4753481;30;20052;-73
2022/12/09 03:51:25;;;;;;;71.32;28.55;;;5.50;99.90;;;;;;4752146;30;20048;-72
2022/12/09 03:53:56;;;;;;;86.28;31.33;;;5.50;99.90;;;;;;4753294;30;20509;-72
2022/12/09 03:56:27;;;;;;;56.85;26.20;;;5.50;99.90;;;;;;4753535;30;20044;-73
2022/12/09 03:58:55;;;;;;;78.43;29.00;;;5.50;99.90;;;;;;4752955;30;20036;-71
2022/12/09 04:01:24;;;;;;;44.50;24.67;;;5.50;99.90;;;;;;4752772;30;20032;-71
2022/12/09 04:03:53;;;;;;;86.78;34.83;;;5.60;99.90;;;;;;4753163;30;20047;-71
2022/12/09 04:06:19;;;;;;;86.70;35.03;;;5.60;99.90;;;;;;4753230;30;20040;-72
2022/12/09 04:08:45;;;;;;;74.57;29.20;;;5.50;99.90;;;;;;4751737;30;20040;-73
2022/12/09 04:11:11;;;;;;;150.38;38.55;;;5.40;99.90;;;;;;4752670;30;20041;-73
2022/12/09 04:13:37;;;;;;;49.83;26.88;;;5.40;99.90;;;;;;4752804;30;20028;-73
2022/12/09 04:16:03;;;;;;;43.88;26.23;;;5.50;99.90;;;;;;4752241;30;20487;-73
2022/12/09 04:18:29;;;;;;;50.35;28.15;;;5.60;99.90;;;;;;4752562;30;20051;-72
2022/12/09 04:20:54;;;;;;;127.85;38.33;;;5.70;99.90;;;;;;4752856;30;20037;-71
2022/12/09 04:23:20;;;;;;;51.25;25.60;;;5.60;99.90;;;;;;4753093;30;20119;-72
2022/12/09 04:25:46;;;;;;;49.13;26.05;;;5.70;99.90;;;;;;4752778;30;20036;-73
2022/12/09 04:28:12;;;;;;;47.05;26.50;;;5.70;99.90;;;;;;4752811;30;20483;-71
2022/12/09 04:30:42;;;;;;;53.75;26.88;;;5.80;99.90;;;;;;4752829;30;20039;-72
2022/12/09 04:33:08;;;;;;;95.03;31.77;;;5.80;99.90;;;;;;4752631;30;20111;-72
2022/12/09 04:35:34;;;;;;;106.40;38.10;;;5.70;99.90;;;;;;4752541;30;20134;-72
2022/12/09 04:38:00;;;;;;;60.58;28.40;;;5.70;99.90;;;;;;4752923;30;20098;-72
2022/12/09 04:40:35;;;;;;;113.68;33.33;;;5.70;99.90;;;;;;5051865;28;20393;-71
2022/12/09 04:43:01;;;;;;;173.32;46.10;;;5.60;99.90;;;;;;5048203;28;20048;-72
2022/12/09 04:45:27;;;;;;;46.25;26.30;;;5.60;99.90;;;;;;5048607;28;20100;-71
2022/12/09 04:47:52;;;;;;;81.75;31.70;;;5.80;99.90;;;;;;5048764;28;20461;-73
2022/12/09 04:50:18;;;;;;;88.43;29.58;;;5.70;99.90;;;;;;5047340;28;20041;-71
2022/12/09 04:52:44;;;;;;;66.68;28.55;;;5.60;99.90;;;;;;5048616;28;20062;-72
2022/12/09 04:55:12;;;;;;;70.22;24.17;;;5.60;99.90;;;;;;5047938;28;20380;-72
2022/12/09 04:57:45;;;;;;;83.25;33.55;;;5.60;99.90;;;;;;5048231;28;20033;-75
2022/12/09 05:00:11;;;;;;;62.47;28.58;;;5.60;99.90;;;;;;5048426;28;20434;-73
2022/12/09 05:02:37;;;;;;;92.05;36.78;;;5.60;99.90;;;;;;5047496;28;20048;-71
2022/12/09 05:05:03;;;;;;;48.53;27.58;;;5.60;99.90;;;;;;5048312;28;20464;-72
2022/12/09 05:07:30;;;;;;;47.30;26.55;;;5.50;99.90;;;;;;5045978;28;20090;-72
2022/12/09 05:09:59;;;;;;;39.38;24.50;;;5.50;99.90;;;;;;5048238;28;20032;-73
2022/12/09 05:12:25;;;;;;;42.92;25.50;;;5.60;99.90;;;;;;5048161;28;20025;-72
2022/12/09 05:14:51;;;;;;;46.00;27.23;;;5.50;99.90;;;;;;5046503;28;20503;-71
2022/12/09 05:17:17;;;;;;;49.65;32.75;;;5.50;99.90;;;;;;5038667;28;20476;-72
2022/12/09 05:19:43;;;;;;;49.28;32.60;;;5.50;99.90;;;;;;5043359;28;20112;-71
2022/12/09 05:22:09;;;;;;;42.67;27.08;;;5.60;99.90;;;;;;5051817;28;20472;-72
2022/12/09 05:24:35;;;;;;;45.85;28.60;;;5.50;99.90;;;;;;5047645;28;20108;-72
2022/12/09 05:27:01;;;;;;;39.33;24.70;;;5.60;99.90;;;;;;5048246;28;20362;-72
2022/12/09 05:29:27;;;;;;;47.15;30.85;;;5.70;99.90;;;;;;5047985;28;20083;-72
2022/12/09 05:31:52;;;;;;;61.28;35.33;;;5.60;99.90;;;;;;5048115;28;20017;-72
2022/12/09 05:34:18;;;;;;;48.95;31.27;;;5.60;99.90;;;;;;5048246;28;20104;-72
2022/12/09 05:36:44;;;;;;;53.90;30.70;;;5.50;99.90;;;;;;5047827;28;20040;-72
2022/12/09 05:39:10;;;;;;;63.55;32.30;;;5.50;99.90;;;;;;5047633;28;20049;-72
2022/12/09 05:41:36;;;;;;;65.28;32.17;;;5.50;99.90;;;;;;5047864;28;20025;-72
2022/12/09 05:44:02;;;;;;;94.75;43.63;;;5.50;99.90;;;;;;5048127;28;20044;-72
2022/12/09 05:46:28;;;;;;;67.20;38.90;;;5.50;99.90;;;;;;5047721;28;20025;-73
2022/12/09 05:48:54;;;;;;;72.93;42.33;;;5.50;99.90;;;;;;5047611;28;20423;-71
2022/12/09 05:51:25;;;;;;;64.47;34.33;;;5.60;99.90;;;;;;5037606;28;20018;-71
2022/12/09 05:53:52;;;;;;;79.88;39.60;;;5.70;99.90;;;;;;5030693;28;20025;-72
2022/12/09 05:56:19;;;;;;;50.15;30.27;;;5.70;99.90;;;;;;5034097;28;20018;-72
2022/12/09 05:58:45;;;;;;;77.45;45.60;;;5.70;99.90;;;;;;5034039;28;20021;-73
2022/12/09 06:01:12;;;;;;;67.18;37.00;;;5.70;99.90;;;;;;5034237;28;20377;-71
2022/12/09 06:03:38;;;;;;;83.80;47.70;;;5.60;99.90;;;;;;5030139;28;20052;-72
2022/12/09 06:06:10;;;;;;;73.28;43.03;;;5.70;99.90;;;;;;5034081;28;20033;-71
2022/12/09 06:08:37;;;;;;;60.70;35.63;;;5.70;99.90;;;;;;5033947;28;20029;-72
2022/12/09 06:11:03;;;;;;;49.03;30.17;;;5.70;99.90;;;;;;5034070;28;20025;-72
2022/12/09 06:13:29;;;;;;;46.45;30.63;;;5.70;99.90;;;;;;5034263;28;20029;-72
2022/12/09 06:16:00;;;;;;;53.67;36.15;;;5.70;99.90;;;;;;5033874;28;20212;-72
2022/12/09 06:18:26;;;;;;;54.55;32.95;;;5.70;99.90;;;;;;5033714;28;20506;-72
2022/12/09 06:20:51;;;;;;;57.60;32.63;;;5.70;99.90;;;;;;5033430;28;20021;-72
2022/12/09 06:23:17;;;;;;;45.72;30.30;;;5.70;99.90;;;;;;5033969;28;20029;-72
2022/12/09 06:25:46;;;;;;;96.05;53.78;;;5.80;99.90;;;;;;5033770;28;20120;-72
2022/12/09 06:28:12;;;;;;;54.30;35.40;;;5.80;99.90;;;;;;5033580;28;20096;-71
2022/12/09 06:30:39;;;;;;;49.78;30.60;;;5.70;99.90;;;;;;5033668;28;20055;-73
2022/12/09 06:33:04;;;;;;;73.25;43.55;;;5.70;99.90;;;;;;5034043;28;20029;-73
2022/12/09 06:35:30;;;;;;;39.75;26.65;;;5.70;99.90;;;;;;5033548;28;20500;-73
2022/12/09 06:37:56;;;;;;;39.88;26.38;;;5.80;99.90;;;;;;5033503;28;20021;-72
2022/12/09 06:40:22;;;;;;;41.50;26.73;;;5.80;99.90;;;;;;5033323;28;20057;-73
2022/12/09 06:42:49;;;;;;;48.15;30.73;;;5.90;99.90;;;;;;5033406;28;20030;-70
2022/12/09 06:45:16;;;;;;;41.75;28.23;;;5.90;99.90;;;;;;5033346;28;20029;-73
2022/12/09 06:47:42;;;;;;;43.13;29.02;;;5.90;99.90;;;;;;5033550;28;20096;-72
2022/12/09 06:50:09;;;;;;;43.30;28.02;;;5.90;99.90;;;;;;5033423;28;20029;-73
2022/12/09 06:52:36;;;;;;;42.33;27.45;;;5.90;99.90;;;;;;5033193;28;20034;-73
2022/12/09 06:55:03;;;;;;;42.15;26.20;;;6.00;99.90;;;;;;5033247;28;20025;-73
2022/12/09 06:57:29;;;;;;;40.67;27.08;;;6.00;99.90;;;;;;5033251;28;20025;-71
2022/12/09 06:59:55;;;;;;;42.13;29.45;;;6.00;99.90;;;;;;5033113;28;20041;-71
2022/12/09 07:02:20;;;;;;;44.78;28.17;;;6.10;99.90;;;;;;5032069;28;20018;-72
2022/12/09 07:04:51;;;;;;;41.35;30.60;;;6.10;99.90;;;;;;5033198;28;20061;-71
2022/12/09 07:07:17;;;;;;;43.88;29.90;;;6.20;99.90;;;;;;5008971;28;20041;-71
2022/12/09 07:09:43;;;;;;;49.55;34.05;;;6.10;99.90;;;;;;5032636;28;20029;-71
2022/12/09 07:12:09;;;;;;;49.65;35.95;;;6.10;99.90;;;;;;5032794;28;20056;-71
2022/12/09 07:14:35;;;;;;;38.78;30.75;;;6.20;99.90;;;;;;5033044;28;20037;-70
2022/12/09 07:17:01;;;;;;;38.65;28.77;;;6.20;99.90;;;;;;5028880;28;20014;-71
2022/12/09 07:19:29;;;;;;;44.72;30.85;;;6.30;99.90;;;;;;5032612;28;20041;-70
2022/12/09 07:21:56;;;;;;;35.08;25.13;;;6.30;99.90;;;;;;5032679;28;20029;-70
2022/12/09 07:24:22;;;;;;;37.85;26.00;;;6.40;99.90;;;;;;5033783;28;20022;-72
2022/12/09 07:26:48;;;;;;;45.72;33.95;;;6.40;99.90;;;;;;5033845;28;20028;-70
2022/12/09 07:29:15;;;;;;;44.03;31.15;;;6.40;99.90;;;;;;5022994;28;20045;-71
2022/12/09 07:31:41;;;;;;;47.53;33.53;;;6.30;99.90;;;;;;5014260;28;20018;-70
2022/12/09 07:34:09;;;;;;;51.08;34.05;;;6.40;99.90;;;;;;5022349;28;20384;-72
2022/12/09 07:36:35;;;;;;;51.58;35.17;;;6.50;99.90;;;;;;5018392;28;20061;-72
2022/12/09 07:39:04;;;;;;;41.75;27.20;;;6.50;99.90;;;;;;5014013;28;20409;-72
2022/12/09 07:41:30;;;;;;;37.72;25.92;;;6.60;99.90;;;;;;5014021;28;20485;-71
2022/12/09 07:43:56;;;;;;;52.90;36.63;;;6.50;99.90;;;;;;5014192;28;20029;-71
2022/12/09 07:46:26;;;;;;;51.72;36.47;;;6.50;99.90;;;;;;5014129;28;20038;-71
2022/12/09 07:48:52;;;;;;;40.28;27.92;;;6.60;99.90;;;;;;5014142;28;20064;-72
2022/12/09 07:51:18;;;;;;;38.08;28.52;;;6.60;99.90;;;;;;5014037;28;20026;-70
2022/12/09 07:53:45;;;;;;;38.85;25.73;;;6.60;99.90;;;;;;5027832;28;20099;-72
2022/12/09 07:56:15;;;;;;;45.38;33.03;;;6.60;99.90;;;;;;5014160;28;20022;-71
2022/12/09 07:58:43;;;;;;;41.15;26.67;;;6.60;99.90;;;;;;5013681;28;20473;-73
2022/12/09 08:01:18;;;;;;;36.65;25.33;;;6.60;99.90;;;;;;5020602;28;20034;-70
2022/12/09 08:03:45;;;;;;;38.00;24.98;;;6.70;99.90;;;;;;5027436;28;20025;-72
2022/12/09 08:06:12;;;;;;;39.50;28.10;;;6.80;99.90;;;;;;5024042;28;20112;-72
2022/12/09 08:08:38;;;;;;;40.45;27.27;;;6.80;99.90;;;;;;5030056;28;20033;-71
2022/12/09 08:11:07;;;;;;;45.35;28.38;;;6.80;99.90;;;;;;5029553;28;20033;-72
2022/12/09 08:13:34;;;;;;;38.97;27.38;;;6.80;99.90;;;;;;5022562;28;20025;-73
2022/12/09 08:16:05;;;;;;;38.88;27.88;;;6.90;99.90;;;;;;5018960;28;20113;-73
2022/12/09 08:18:32;;;;;;;42.85;29.85;;;6.90;99.90;;;;;;5013533;28;20539;-70
2022/12/09 08:20:58;;;;;;;46.17;32.22;;;6.80;99.90;;;;;;5018461;28;20488;-73
2022/12/09 08:23:24;;;;;;;37.28;27.40;;;6.90;99.90;;;;;;5020916;28;20373;-72
2022/12/09 08:25:53;;;;;;;33.05;24.88;;;7.00;99.90;;;;;;5031537;28;20087;-71
2022/12/09 08:28:19;;;;;;;35.88;25.83;;;7.00;99.90;;;;;;5030654;28;20022;-72
2022/12/09 08:30:45;;;;;;;34.50;25.63;;;7.10;99.90;;;;;;5028532;28;20017;-70
2022/12/09 08:33:11;;;;;;;42.22;28.20;;;7.20;99.90;;;;;;5017655;28;20373;-72
2022/12/09 08:35:37;;;;;;;39.75;28.10;;;7.20;99.90;;;;;;5032187;28;20056;-72
2022/12/09 08:38:03;;;;;;;36.55;26.33;;;7.30;99.90;;;;;;5031254;28;20559;-71
2022/12/09 08:40:29;;;;;;;39.15;27.45;;;7.30;99.90;;;;;;5025416;28;20092;-72
2022/12/09 08:42:55;;;;;;;41.50;27.88;;;7.40;99.90;;;;;;5015333;28;20030;-71
2022/12/09 08:45:21;;;;;;;56.53;40.22;;;7.40;99.90;;;;;;5022216;28;20335;-73
2022/12/09 08:47:47;;;;;;;64.95;44.53;;;7.50;99.90;;;;;;5028182;28;20032;-71
2022/12/09 08:50:13;;;;;;;37.25;26.45;;;7.60;99.90;;;;;;5040276;28;20029;-73
2022/12/09 08:52:39;;;;;;;41.35;28.73;;;7.60;99.90;;;;;;5032391;28;20026;-73
2022/12/09 08:55:05;;;;;;;42.53;28.73;;;7.60;99.90;;;;;;5034140;28;20029;-70
2022/12/09 08:57:31;;;;;;;38.40;28.20;;;7.70;99.90;;;;;;5032384;28;20025;-73
2022/12/09 08:59:57;;;;;;;43.03;30.15;;;7.80;99.90;;;;;;5014760;28;20033;-72
2022/12/09 09:02:23;;;;;;;44.17;31.17;;;7.90;99.90;;;;;;5016631;28;20079;-71
2022/12/09 09:04:48;;;;;;;46.80;33.42;;;7.90;99.90;;;;;;5018873;28;20025;-72
2022/12/09 09:07:14;;;;;;;52.45;38.60;;;7.90;99.90;;;;;;5032055;28;20041;-73
2022/12/09 09:09:40;;;;;;;45.47;30.05;;;8.00;99.90;;;;;;5016552;28;20025;-72
2022/12/09 09:12:06;;;;;;;37.08;28.17;;;8.10;99.90;;;;;;5028016;28;20053;-72
2022/12/09 09:14:32;;;;;;;39.33;27.90;;;8.10;99.90;;;;;;5013149;28;20030;-73
2022/12/09 09:16:58;;;;;;;42.08;28.10;;;8.20;99.90;;;;;;5017407;28;20587;-73
2022/12/09 09:19:25;;;;;;;37.80;27.65;;;8.20;99.90;;;;;;5042732;28;20453;-72
2022/12/09 09:21:52;;;;;;;47.88;33.45;;;8.30;99.90;;;;;;5030738;28;20156;-72
2022/12/09 09:24:21;;;;;;;43.88;31.77;;;8.30;99.90;;;;;;5025423;28;20373;-72
2022/12/09 09:27:03;;;;;;;;;;;;;;;;;;;;;
2022/12/09 09:29:45;;;;;;;79.18;47.78;;;8.30;99.90;;;;;;5033108;28;20065;-71
2022/12/09 09:32:11;;;;;;;65.45;43.40;;;8.40;99.90;;;;;;5015739;28;20041;-70
2022/12/09 09:34:37;;;;;;;64.00;45.40;;;8.40;99.90;;;;;;5016761;28;20145;-71
2022/12/09 09:37:03;;;;;;;73.47;46.83;;;8.50;99.90;;;;;;5016135;28;20469;-73
2022/12/09 09:39:28;;;;;;;67.80;47.15;;;8.60;99.90;;;;;;5022712;28;20050;-72
2022/12/09 09:41:56;;;;;;;60.67;43.95;;;8.70;99.90;;;;;;5026223;28;20033;-72
2022/12/09 09:44:30;;;;;;;69.07;44.88;;;8.80;99.90;;;;;;5023894;28;20120;-72
2022/12/09 09:46:57;;;;;;;63.10;42.65;;;8.90;99.90;;;;;;5031315;28;20026;-72
2022/12/09 09:49:44;;;;;;;77.30;50.55;;;9.10;99.90;;;;;;5031196;28;20021;-72
2022/12/09 09:52:22;;;;;;;76.72;47.45;;;9.10;99.90;;;;;;5018020;28;20030;-72
2022/12/09 09:54:48;;;;;;;82.00;46.90;;;9.20;99.90;;;;;;5015880;28;20477;-71
2022/12/09 09:57:26;;;;;;;85.57;53.17;;;9.30;99.90;;;;;;5018332;28;20021;-72
2022/12/09 10:00:20;;;;;;;75.68;51.53;;;9.30;99.90;;;;;;5022590;28;20353;-73
2022/12/09 10:03:18;;;;;;;73.60;47.95;;;9.40;99.90;;;;;;5026287;28;20492;-72
2022/12/09 10:05:59;;;;;;;66.03;47.22;;;9.40;99.90;;;;;;5015885;28;20060;-72
2022/12/09 10:08:37;;;;;;;64.15;45.08;;;9.50;99.90;;;;;;5028243;28;20056;-72
2022/12/09 10:11:53;;;;;;;66.68;49.28;;;9.60;99.90;;;;;;5016149;28;20072;-72
2022/12/09 10:14:31;;;;;;;72.38;50.78;;;9.60;99.90;;;;;;5033509;28;20108;-72
2022/12/09 10:17:14;;;;;;;79.03;51.83;;;9.60;99.90;;;;;;5032991;28;20045;-72
2022/12/09 10:19:46;;;;;;;79.35;53.75;;;9.60;99.90;;;;;;5033231;28;20044;-72
2022/12/09 10:22:41;;;;;;;70.47;44.80;;;9.70;99.90;;;;;;5023612;28;20123;-72
2022/12/09 10:25:27;;;;;;;67.45;41.33;;;9.80;99.90;;;;;;5024125;28;20052;-73
2022/12/09 10:28:14;;;;;;;60.10;42.42;;;9.90;99.90;;;;;;5032854;28;20033;-70
2022/12/09 10:30:40;;;;;;;58.40;39.80;;;9.90;99.90;;;;;;5047378;28;20065;-72
2022/12/09 10:33:08;;;;;;;52.50;37.58;;;10.00;99.90;;;;;;5033267;28;20417;-72
2022/12/09 10:35:34;;;;;;;51.83;35.50;;;10.10;99.90;;;;;;5033067;28;20045;-71
2022/12/09 10:38:09;;;;;;;51.33;35.17;;;10.10;99.90;;;;;;5032915;28;20084;-71
2022/12/09 10:40:46;;;;;;;54.35;35.47;;;10.20;99.90;;;;;;5032705;28;20053;-71
2022/12/09 10:43:34;;;;;;;66.80;37.70;;;10.30;99.90;;;;;;5033051;28;20037;-73
2022/12/09 10:46:03;;;;;;;58.70;38.42;;;10.40;99.90;;;;;;5032888;28;20096;-73
2022/12/09 10:48:36;;;;;;;51.92;37.85;;;10.50;99.90;;;;;;5024748;28;20386;-74
2022/12/09 10:51:33;;;;;;;50.38;36.13;;;10.60;99.90;;;;;;5015113;28;20521;-73
2022/12/09 10:54:19;;;;;;;43.40;31.20;;;10.70;99.90;;;;;;5032695;28;20489;-73
2022/12/09 10:57:20;;;;;;;39.75;27.77;;;10.70;99.90;;;;;;5032517;28;20044;-73
2022/12/09 11:00:06;;;;;;;35.92;23.92;;;10.80;99.90;;;;;;5032238;28;20049;-73
2022/12/09 11:02:33;;;;;;;46.97;27.33;;;10.90;99.90;;;;;;5032706;28;20377;-72
2022/12/09 11:05:24;;;;;;;43.55;27.95;;;11.00;99.90;;;;;;5034721;28;20049;-73
2022/12/09 11:07:51;;;;;;;43.38;26.25;;;11.00;99.90;;;;;;4998753;28;20046;-72
2022/12/09 11:10:20;;;;;;;46.80;28.65;;;11.10;99.90;;;;;;5002551;28;20121;-72
2022/12/09 11:12:54;;;;;;;43.72;27.10;;;11.30;99.90;;;;;;4992955;28;20041;-73
2022/12/09 11:15:31;;;;;;;42.90;25.23;;;11.30;99.90;;;;;;4992561;28;20041;-72
2022/12/09 11:18:24;;;;;;;41.70;26.60;;;11.40;99.90;;;;;;5004067;28;20042;-73
2022/12/09 11:20:58;;;;;;;37.45;23.58;;;11.50;99.90;;;;;;5005604;28;20037;-72
2022/12/09 11:23:25;;;;;;;42.63;26.92;;;11.60;99.90;;;;;;5006639;28;20029;-72
2022/12/09 11:25:56;;;;;;;44.33;26.92;;;11.70;99.90;;;;;;4998358;28;20072;-73
2022/12/09 11:28:26;;;;;;;39.70;25.73;;;11.70;99.90;;;;;;5005451;28;20403;-71
2022/12/09 11:30:54;;;;;;;35.95;19.33;;;11.80;99.90;;;;;;4992788;28;20568;-72
2022/12/09 11:33:27;;;;;;;32.63;20.65;;;11.90;99.90;;;;;;5000472;28;20037;-73
2022/12/09 11:36:01;;;;;;;42.15;21.63;;;11.90;99.90;;;;;;4998617;28;20038;-73
2022/12/09 11:38:40;;;;;;;33.15;17.67;;;11.90;99.90;;;;;;4991979;28;20061;-73
2022/12/09 11:41:11;;;;;;;36.03;20.23;;;12.00;99.90;;;;;;4979305;28;20030;-73
2022/12/09 11:43:41;;;;;;;33.45;19.42;;;12.00;99.90;;;;;;4993491;28;20035;-73
2022/12/09 11:46:13;;;;;;;34.90;20.73;;;12.10;99.90;;;;;;5032221;28;20045;-72
2022/12/09 11:48:46;;;;;;;37.53;18.73;;;12.20;99.90;;;;;;5013481;28;20033;-73
2022/12/09 11:51:29;;;;;;;33.25;17.98;;;12.20;99.90;;;;;;5036903;28;20060;-73
2022/12/09 11:54:08;;;;;;;33.00;17.20;;;12.20;99.90;;;;;;5029673;28;20036;-74
2022/12/09 11:56:36;;;;;;;30.58;16.90;;;12.20;99.90;;;;;;5032773;28;20049;-72
2022/12/09 11:59:09;;;;;;;32.15;18.77;;;12.20;99.90;;;;;;5014032;28;20057;-73
2022/12/09 12:01:50;;;;;;;;;;;12.20;99.90;;;;;;5029407;28;20108;-73
2022/12/09 12:04:30;;;;;;;29.98;16.20;;;12.30;99.90;;;;;;5036856;28;20723;-73
2022/12/09 12:07:04;;;;;;;31.05;16.67;;;12.30;99.90;;;;;;5032126;28;20025;-74
2022/12/09 12:09:46;;;;;;;28.77;15.60;;;12.30;99.90;;;;;;5033285;28;20053;-72
2022/12/09 12:12:36;;;;;;;24.27;13.60;;;12.30;99.90;;;;;;5032253;28;20411;-74
2022/12/09 12:15:15;;;;;;;24.08;12.30;;;12.30;99.90;;;;;;5037532;28;20104;-72
2022/12/09 12:17:45;;;;;;;28.20;13.45;;;12.30;99.90;;;;;;5032354;28;20060;-74
2022/12/09 12:20:12;;;;;;;26.25;13.70;;;12.40;99.90;;;;;;5033381;28;20373;-73
2022/12/09 12:22:57;;;;;;;20.80;13.20;;;12.40;99.90;;;;;;5032750;28;20029;-72
2022/12/09 12:26:11;;;;;;;29.05;14.15;;;12.40;99.90;;;;;;5033329;28;20040;-73
2022/12/09 12:29:10;;;;;;;24.50;12.32;;;12.50;99.90;;;;;;4994884;28;20041;-74
2022/12/09 12:32:00;;;;;;;27.98;11.40;;;12.50;99.90;;;;;;4994124;28;20034;-74
2022/12/09 12:34:37;;;;;;;23.15;12.02;;;12.50;99.90;;;;;;4990501;28;20557;-73
2022/12/09 12:37:06;;;;;;;21.88;11.70;;;12.50;99.90;;;;;;4991263;28;20038;-72
2022/12/09 12:39:43;;;;;;;28.73;11.63;;;12.50;99.90;;;;;;4991201;28;20522;-72
2022/12/09 12:42:23;;;;;;;21.52;12.73;;;12.60;99.90;;;;;;4991750;28;20093;-72
2022/12/09 12:48:22;;;;;;;26.50;13.25;;;12.70;99.90;;;;;;4991596;28;20034;-73
2022/12/09 12:50:53;;;;;;;26.10;11.68;;;12.70;99.90;;;;;;5002799;28;20041;-72
2022/12/09 12:53:31;;;;;;;23.23;12.35;;;12.70;99.90;;;;;;4991237;28;20026;-72
2022/12/09 12:56:29;;;;;;;24.23;12.85;;;12.70;99.90;;;;;;4991860;28;20045;-72
2022/12/09 12:59:05;;;;;;;26.35;12.27;;;12.70;99.90;;;;;;4991451;28;20046;-72